createdAt,value
2017-09-13T00:01:12.110Z,1.80
2017-09-13T00:03:39.689Z,1.67
2017-09-13T00:06:07.236Z,1.80
2017-09-13T00:08:34.822Z,1.70
2017-09-13T00:11:02.380Z,1.83
2017-09-13T00:13:29.926Z,1.83
2017-09-13T00:15:57.519Z,1.80
2017-09-13T00:18:25.134Z,2.30
2017-09-13T00:20:52.894Z,1.80
2017-09-13T00:23:20.473Z,1.80
2017-09-13T00:25:48.039Z,2.00
2017-09-13T00:28:15.623Z,2.10
2017-09-13T00:30:43.195Z,1.60
2017-09-13T00:33:10.764Z,2.17
2017-09-13T00:35:38.384Z,1.70
2017-09-13T00:38:06.002Z,1.73
2017-09-13T00:40:33.519Z,1.80
2017-09-13T00:43:01.053Z,2.10
2017-09-13T00:45:28.831Z,2.20
2017-09-13T00:47:56.358Z,2.30
2017-09-13T00:50:23.919Z,2.30
2017-09-13T00:52:51.483Z,2.00
2017-09-13T00:55:19.048Z,2.40
2017-09-13T00:57:46.589Z,2.00
2017-09-13T01:00:14.386Z,1.93
2017-09-13T01:02:41.981Z,2.30
2017-09-13T01:05:09.585Z,2.33
2017-09-13T01:07:37.230Z,1.97
2017-09-13T01:10:05.014Z,2.17
2017-09-13T01:12:32.558Z,2.00
2017-09-13T01:15:00.170Z,2.03
2017-09-13T01:17:27.716Z,1.80
2017-09-13T01:19:55.229Z,2.00
2017-09-13T01:22:22.760Z,2.10
2017-09-13T01:24:50.293Z,2.33
2017-09-13T01:27:18.036Z,2.00
2017-09-13T01:29:45.640Z,2.13
2017-09-13T01:32:13.194Z,1.97
2017-09-13T01:34:40.948Z,2.20
2017-09-13T01:37:08.552Z,2.10
2017-09-13T01:39:36.251Z,2.53
2017-09-13T01:42:03.781Z,2.30
2017-09-13T01:44:31.350Z,2.70
2017-09-13T01:46:58.979Z,2.30
2017-09-13T01:49:26.566Z,2.10
2017-09-13T01:51:55.735Z,2.13
2017-09-13T01:54:23.345Z,2.40
2017-09-13T01:56:50.930Z,2.10
2017-09-13T01:59:18.581Z,2.33
2017-09-13T02:01:47.086Z,2.13
2017-09-13T02:04:14.617Z,2.43
2017-09-13T02:06:42.178Z,2.30
2017-09-13T02:09:09.976Z,2.50
2017-09-13T02:11:37.598Z,2.33
2017-09-13T02:14:05.234Z,2.40
2017-09-13T02:16:32.810Z,2.60
2017-09-13T02:19:00.317Z,2.60
2017-09-13T02:21:27.846Z,2.20
2017-09-13T02:23:55.484Z,2.90
2017-09-13T02:26:23.038Z,3.57
2017-09-13T02:28:50.581Z,3.23
2017-09-13T02:31:18.164Z,3.70
2017-09-13T02:33:45.674Z,3.30
2017-09-13T02:36:13.303Z,3.00
2017-09-13T02:38:40.910Z,2.60
2017-09-13T02:41:08.655Z,4.57
2017-09-13T02:43:36.214Z,4.33
2017-09-13T02:46:03.782Z,5.20
2017-09-13T02:48:31.635Z,5.77
2017-09-13T02:50:59.173Z,6.40
2017-09-13T02:53:26.747Z,6.43
2017-09-13T02:55:54.309Z,5.90
2017-09-13T02:58:21.832Z,7.00
2017-09-13T03:00:49.508Z,6.77
2017-09-13T03:03:17.427Z,7.90
2017-09-13T03:05:44.975Z,6.53
2017-09-13T03:08:12.546Z,6.23
2017-09-13T03:10:40.114Z,6.47
2017-09-13T03:13:07.663Z,8.00
2017-09-13T03:15:35.237Z,7.60
2017-09-13T03:18:02.741Z,8.07
2017-09-13T03:20:30.335Z,14.50
2017-09-13T03:22:57.915Z,9.60
2017-09-13T03:25:26.230Z,13.23
2017-09-13T03:27:53.753Z,14.50
2017-09-13T03:30:21.339Z,12.33
2017-09-13T03:32:48.901Z,14.20
2017-09-13T03:35:16.447Z,11.97
2017-09-13T03:37:44.026Z,12.87
2017-09-13T03:40:11.575Z,16.40
2017-09-13T03:42:39.105Z,20.20
2017-09-13T03:45:06.673Z,16.03
2017-09-13T03:47:34.204Z,18.17
2017-09-13T03:50:01.763Z,12.03
2017-09-13T03:52:29.358Z,11.00
2017-09-13T03:54:56.865Z,9.90
2017-09-13T03:57:24.408Z,13.47
2017-09-13T03:59:51.970Z,13.73
2017-09-13T04:02:19.578Z,11.03
2017-09-13T04:04:47.114Z,11.17
2017-09-13T04:07:14.635Z,10.60
2017-09-13T04:09:42.210Z,11.57
2017-09-13T04:12:10.652Z,11.00
2017-09-13T04:14:38.204Z,7.80
2017-09-13T04:17:09.968Z,6.77
2017-09-13T04:22:30.704Z,6.10
2017-09-13T04:24:58.272Z,6.23
2017-09-13T04:27:25.866Z,6.87
2017-09-13T04:29:54.389Z,5.10
2017-09-13T04:32:21.960Z,6.03
2017-09-13T04:34:58.346Z,5.47
2017-09-13T04:37:29.440Z,6.20
2017-09-13T04:39:57.921Z,5.73
2017-09-13T04:45:25.235Z,6.10
2017-09-13T04:48:09.001Z,6.03
2017-09-13T04:50:38.402Z,6.60
2017-09-13T04:53:07.100Z,5.30
2017-09-13T04:55:34.759Z,5.00
2017-09-13T04:58:03.167Z,6.90
2017-09-13T05:00:30.886Z,6.20
2017-09-13T05:02:58.699Z,5.43
2017-09-13T05:05:26.246Z,4.90
2017-09-13T05:07:53.826Z,7.00
2017-09-13T05:10:21.438Z,4.97
2017-09-13T05:12:48.967Z,4.83
2017-09-13T05:15:16.577Z,5.60
2017-09-13T05:17:44.105Z,5.60
2017-09-13T05:20:11.616Z,5.67
2017-09-13T05:22:39.143Z,5.13
2017-09-13T05:25:06.938Z,5.60
2017-09-13T05:27:34.489Z,4.43
2017-09-13T05:30:02.184Z,5.07
2017-09-13T05:32:29.801Z,5.60
2017-09-13T05:34:57.556Z,4.90
2017-09-13T05:37:25.161Z,5.43
2017-09-13T05:39:52.770Z,5.20
2017-09-13T05:42:20.357Z,5.30
2017-09-13T05:44:47.884Z,5.50
2017-09-13T05:47:15.674Z,5.30
2017-09-13T05:49:43.317Z,5.20
2017-09-13T05:52:11.094Z,5.70
2017-09-13T05:54:38.741Z,5.60
2017-09-13T05:57:06.632Z,5.13
2017-09-13T05:59:34.194Z,7.20
2017-09-13T06:02:01.750Z,6.60
2017-09-13T06:04:29.297Z,6.30
2017-09-13T06:06:56.934Z,6.50
2017-09-13T06:09:24.539Z,6.60
2017-09-13T06:11:52.288Z,5.80
2017-09-13T06:14:19.963Z,4.37
2017-09-13T06:16:47.519Z,6.10
2017-09-13T06:19:15.138Z,6.20
2017-09-13T06:21:42.738Z,6.43
2017-09-13T06:24:10.309Z,7.50
2017-09-13T06:26:37.931Z,5.97
2017-09-13T06:29:05.603Z,5.10
2017-09-13T06:31:33.225Z,4.70
2017-09-13T06:34:01.174Z,5.20
2017-09-13T06:36:28.744Z,6.40
2017-09-13T06:38:56.340Z,5.00
2017-09-13T06:41:23.906Z,6.13
2017-09-13T06:43:51.577Z,6.07
2017-09-13T06:46:19.159Z,6.47
2017-09-13T06:48:46.705Z,5.60
2017-09-13T06:51:14.281Z,5.63
2017-09-13T06:53:41.847Z,5.50
2017-09-13T06:56:09.397Z,6.10
2017-09-13T06:58:36.947Z,4.80
2017-09-13T07:01:04.506Z,5.17
2017-09-13T07:03:32.083Z,4.90
2017-09-13T07:05:59.593Z,6.30
2017-09-13T07:08:27.155Z,6.20
2017-09-13T07:10:54.681Z,6.17
2017-09-13T07:13:22.251Z,5.50
2017-09-13T07:15:49.832Z,5.50
2017-09-13T07:18:17.342Z,6.40
2017-09-13T07:20:44.876Z,5.20
2017-09-13T07:23:12.454Z,4.80
2017-09-13T07:25:40.081Z,4.60
2017-09-13T07:28:07.626Z,5.80
2017-09-13T07:30:35.235Z,3.70
2017-09-13T07:33:02.754Z,3.60
2017-09-13T07:35:30.274Z,4.20
2017-09-13T07:37:57.888Z,4.90
2017-09-13T07:40:25.665Z,4.87
2017-09-13T07:42:53.247Z,3.57
2017-09-13T07:45:20.817Z,4.10
2017-09-13T07:47:48.350Z,4.57
2017-09-13T07:50:15.889Z,5.30
2017-09-13T07:52:43.450Z,5.37
2017-09-13T07:55:10.979Z,5.20
2017-09-13T07:57:38.510Z,5.47
2017-09-13T08:00:06.379Z,4.43
2017-09-13T08:02:33.893Z,4.77
2017-09-13T08:05:03.207Z,4.50
2017-09-13T08:07:30.835Z,5.73
2017-09-13T08:09:58.557Z,6.20
2017-09-13T08:12:26.286Z,5.40
2017-09-13T08:14:53.989Z,5.20
2017-09-13T08:17:22.354Z,4.80
2017-09-13T08:19:49.882Z,4.80
2017-09-13T08:22:17.454Z,4.90
2017-09-13T08:24:44.979Z,4.60
2017-09-13T08:27:12.607Z,4.80
2017-09-13T08:29:40.163Z,4.47
2017-09-13T08:32:07.822Z,4.60
2017-09-13T08:34:35.579Z,4.47
2017-09-13T08:37:03.095Z,4.43
2017-09-13T08:39:30.643Z,4.17
2017-09-13T08:41:58.150Z,4.40
2017-09-13T08:44:25.674Z,4.30
2017-09-13T08:46:53.211Z,4.20
2017-09-13T08:49:20.718Z,3.23
2017-09-13T08:51:48.450Z,3.93
2017-09-13T08:54:16.006Z,2.90
2017-09-13T08:56:43.559Z,3.53
2017-09-13T08:59:11.339Z,3.10
2017-09-13T09:01:38.895Z,3.00
2017-09-13T09:04:06.419Z,3.80
2017-09-13T09:06:34.424Z,3.37
2017-09-13T09:09:01.994Z,2.80
2017-09-13T09:11:29.586Z,3.57
2017-09-13T09:13:57.983Z,3.80
2017-09-13T09:16:25.572Z,3.07
2017-09-13T09:18:53.108Z,3.90
2017-09-13T09:21:20.685Z,4.67
2017-09-13T09:23:48.241Z,4.37
2017-09-13T09:26:15.871Z,3.50
2017-09-13T09:28:43.368Z,4.73
2017-09-13T09:31:11.100Z,3.30
2017-09-13T09:33:38.652Z,2.93
2017-09-13T09:36:06.249Z,3.53
2017-09-13T09:38:33.922Z,2.57
2017-09-13T09:41:01.444Z,2.60
2017-09-13T09:43:29.008Z,2.73
2017-09-13T09:45:56.646Z,2.90
2017-09-13T09:48:24.198Z,3.60
2017-09-13T09:50:51.733Z,3.60
2017-09-13T09:53:20.148Z,4.27
2017-09-13T09:55:47.721Z,3.90
2017-09-13T09:58:15.254Z,3.60
2017-09-13T10:00:42.858Z,5.50
2017-09-13T10:03:10.442Z,3.30
2017-09-13T10:05:38.036Z,2.83
2017-09-13T10:08:05.635Z,2.30
2017-09-13T10:10:33.374Z,2.80
2017-09-13T10:13:00.912Z,3.70
2017-09-13T10:15:28.494Z,3.27
2017-09-13T10:17:56.036Z,3.00
2017-09-13T10:20:23.571Z,3.20
2017-09-13T10:22:51.145Z,3.00
2017-09-13T10:25:18.735Z,3.50
2017-09-13T10:27:46.304Z,3.03
2017-09-13T10:30:13.998Z,3.77
2017-09-13T10:32:41.840Z,4.20
2017-09-13T10:35:09.602Z,4.50
2017-09-13T10:37:37.218Z,4.17
2017-09-13T10:40:05.490Z,3.80
2017-09-13T10:42:33.253Z,5.00
2017-09-13T10:45:00.830Z,4.27
2017-09-13T10:47:28.412Z,3.67
2017-09-13T10:49:55.983Z,3.60
2017-09-13T10:52:23.612Z,3.63
2017-09-13T10:54:51.149Z,3.37
2017-09-13T10:57:18.783Z,3.10
2017-09-13T10:59:46.385Z,3.57
2017-09-13T11:02:13.991Z,3.33
2017-09-13T11:04:42.426Z,3.50
2017-09-13T11:07:10.044Z,3.50
2017-09-13T11:09:37.651Z,3.97
2017-09-13T11:12:05.170Z,3.10
2017-09-13T11:14:32.705Z,3.10
2017-09-13T11:17:00.431Z,2.87
2017-09-13T11:19:28.003Z,3.00
2017-09-13T11:21:55.628Z,2.70
2017-09-13T11:24:23.209Z,2.87
2017-09-13T11:26:50.844Z,3.00
2017-09-13T11:29:18.467Z,2.70
2017-09-13T11:31:46.506Z,2.90
2017-09-13T11:34:14.173Z,3.27
2017-09-13T11:36:41.789Z,3.40
2017-09-13T11:39:09.376Z,3.83
2017-09-13T11:41:36.922Z,4.73
2017-09-13T11:44:04.483Z,3.10
2017-09-13T11:46:32.021Z,3.60
2017-09-13T11:48:59.543Z,5.20
2017-09-13T11:51:27.292Z,4.70
2017-09-13T11:53:54.861Z,4.27
2017-09-13T11:56:22.461Z,4.60
2017-09-13T11:58:50.189Z,4.70
2017-09-13T12:01:18.055Z,3.90
2017-09-13T12:03:45.629Z,4.20
2017-09-13T12:06:13.434Z,4.47
2017-09-13T12:08:41.015Z,3.60
2017-09-13T12:11:08.557Z,3.70
2017-09-13T12:13:36.126Z,3.70
2017-09-13T12:16:03.746Z,4.07
2017-09-13T12:18:31.298Z,4.13
2017-09-13T12:20:59.988Z,3.90
2017-09-13T12:23:27.598Z,4.40
2017-09-13T12:25:55.374Z,4.40
2017-09-13T12:28:22.904Z,5.00
2017-09-13T12:30:50.475Z,4.57
2017-09-13T12:33:18.094Z,4.63
2017-09-13T12:35:45.630Z,4.70
2017-09-13T12:38:13.200Z,4.87
2017-09-13T12:40:40.775Z,4.13
2017-09-13T12:43:08.551Z,4.67
2017-09-13T12:45:36.194Z,5.23
2017-09-13T12:48:03.754Z,5.40
2017-09-13T12:50:31.507Z,4.80
2017-09-13T12:52:59.114Z,5.23
2017-09-13T12:55:26.665Z,5.30
2017-09-13T12:57:54.210Z,3.80
2017-09-13T13:00:21.913Z,5.00
2017-09-13T13:02:49.674Z,4.60
2017-09-13T13:05:17.562Z,4.10
2017-09-13T13:07:45.380Z,4.30
2017-09-13T13:10:13.457Z,4.20
2017-09-13T13:12:41.590Z,4.83
2017-09-13T13:15:09.185Z,4.90
2017-09-13T13:17:36.772Z,4.63
2017-09-13T13:20:04.398Z,5.20
2017-09-13T13:22:32.009Z,4.73
2017-09-13T13:24:59.818Z,4.80
2017-09-13T13:27:27.365Z,5.80
2017-09-13T13:29:54.958Z,5.10
2017-09-13T13:32:23.094Z,4.53
2017-09-13T13:34:50.854Z,4.70
2017-09-13T13:37:18.402Z,5.33
2017-09-13T13:39:45.973Z,4.60
2017-09-13T13:42:13.596Z,4.50
2017-09-13T13:44:41.122Z,4.67
2017-09-13T13:47:08.698Z,4.60
2017-09-13T13:49:36.228Z,4.30
2017-09-13T13:52:03.769Z,4.23
2017-09-13T13:54:31.853Z,4.27
2017-09-13T13:56:59.377Z,4.20
2017-09-13T13:59:26.890Z,4.33
2017-09-13T14:01:54.469Z,3.50
2017-09-13T14:04:22.038Z,3.77
2017-09-13T14:06:49.637Z,3.60
2017-09-13T14:09:17.255Z,4.33
2017-09-13T14:11:44.779Z,5.00
2017-09-13T14:14:12.302Z,4.77
2017-09-13T14:16:39.971Z,4.70
2017-09-13T14:19:07.610Z,3.53
2017-09-13T14:21:35.139Z,3.87
2017-09-13T14:24:02.781Z,3.33
2017-09-13T14:26:30.337Z,4.00
2017-09-13T14:28:57.894Z,4.00
2017-09-13T14:31:25.476Z,3.70
2017-09-13T14:33:53.290Z,4.03
2017-09-13T14:36:20.842Z,4.50
2017-09-13T14:38:48.446Z,4.47
2017-09-13T14:41:16.257Z,4.50
2017-09-13T14:43:43.818Z,3.90
2017-09-13T14:46:11.378Z,3.53
2017-09-13T14:48:38.913Z,4.23
2017-09-13T14:51:06.429Z,4.20
2017-09-13T14:53:34.034Z,3.70
2017-09-13T14:56:01.601Z,4.20
2017-09-13T14:58:29.237Z,4.20
2017-09-13T15:00:57.027Z,4.50
2017-09-13T15:03:24.804Z,4.20
2017-09-13T15:05:52.378Z,4.47
2017-09-13T15:08:19.937Z,3.50
2017-09-13T15:10:48.046Z,3.73
2017-09-13T15:13:15.621Z,3.87
2017-09-13T15:15:43.175Z,4.50
2017-09-13T15:18:10.792Z,4.20
2017-09-13T15:20:38.334Z,5.10
2017-09-13T15:23:05.910Z,5.60
2017-09-13T15:25:33.452Z,6.53
2017-09-13T15:28:00.990Z,3.90
2017-09-13T15:30:28.713Z,3.87
2017-09-13T15:32:56.316Z,4.40
2017-09-13T15:35:24.070Z,3.73
2017-09-13T15:37:51.718Z,3.73
2017-09-13T15:40:19.335Z,6.30
2017-09-13T15:42:47.337Z,3.23
2017-09-13T15:45:15.016Z,3.00
2017-09-13T15:47:42.560Z,3.23
2017-09-13T15:50:10.098Z,3.07
2017-09-13T15:52:37.773Z,2.73
2017-09-13T15:55:05.423Z,2.60
2017-09-13T15:57:33.171Z,5.50
2017-09-13T16:00:00.746Z,6.70
2017-09-13T16:02:28.375Z,6.90
2017-09-13T16:04:55.951Z,3.97
2017-09-13T16:07:23.538Z,3.50
2017-09-13T16:09:51.128Z,3.80
2017-09-13T16:12:18.813Z,3.60
2017-09-13T16:14:46.876Z,5.20
2017-09-13T16:17:14.483Z,3.80
2017-09-13T16:19:43.753Z,3.23
2017-09-13T16:22:11.339Z,3.00
2017-09-13T16:24:38.935Z,2.60
2017-09-13T16:27:06.483Z,3.20
2017-09-13T16:29:35.095Z,3.10
2017-09-13T16:32:02.730Z,3.53
2017-09-13T16:34:30.372Z,4.17
2017-09-13T16:36:57.996Z,3.90
2017-09-13T16:39:25.641Z,4.03
2017-09-13T16:41:53.373Z,3.50
2017-09-13T16:44:21.052Z,4.60
2017-09-13T16:46:48.680Z,4.47
2017-09-13T16:49:16.356Z,4.37
2017-09-13T16:51:44.156Z,6.83
2017-09-13T16:54:11.773Z,6.30
2017-09-13T16:56:39.418Z,6.10
2017-09-13T16:59:06.986Z,5.00
2017-09-13T17:01:34.596Z,5.00
2017-09-13T17:04:02.175Z,5.23
2017-09-13T17:06:29.730Z,5.00
2017-09-13T17:08:57.555Z,5.63
2017-09-13T17:11:25.553Z,7.03
2017-09-13T17:13:53.113Z,5.47
2017-09-13T17:16:20.745Z,8.50
2017-09-13T17:18:48.386Z,6.43
2017-09-13T17:21:16.178Z,6.00
2017-09-13T17:23:43.800Z,7.33
2017-09-13T17:26:11.370Z,7.90
2017-09-13T17:28:38.961Z,6.57
2017-09-13T17:31:06.641Z,6.67
2017-09-13T17:33:34.511Z,6.17
2017-09-13T17:36:02.700Z,5.37
2017-09-13T17:38:30.355Z,6.70
2017-09-13T17:40:57.979Z,6.50
2017-09-13T17:43:25.526Z,5.40
2017-09-13T17:45:53.175Z,6.70
2017-09-13T17:48:21.109Z,6.00
2017-09-13T17:50:48.938Z,6.63
2017-09-13T17:53:16.563Z,7.00
2017-09-13T17:55:44.135Z,6.20
2017-09-13T17:58:11.700Z,6.57
2017-09-13T18:00:39.360Z,5.67
2017-09-13T18:03:06.952Z,7.33
2017-09-13T18:05:35.459Z,6.60
2017-09-13T18:08:03.092Z,6.10
2017-09-13T18:10:30.698Z,6.83
2017-09-13T18:12:58.289Z,7.53
2017-09-13T18:15:25.884Z,6.90
2017-09-13T18:17:53.503Z,7.90
2017-09-13T18:20:21.067Z,8.10
2017-09-13T18:22:48.675Z,7.77
2017-09-13T18:25:16.226Z,8.20
2017-09-13T18:27:43.810Z,9.37
2017-09-13T18:30:11.429Z,9.53
2017-09-13T18:32:39.054Z,11.03
2017-09-13T18:35:06.611Z,9.63
2017-09-13T18:37:34.194Z,9.13
2017-09-13T18:40:01.811Z,7.80
2017-09-13T18:42:29.374Z,8.50
2017-09-13T18:44:57.004Z,8.10
2017-09-13T18:47:25.057Z,8.00
2017-09-13T18:49:52.632Z,8.17
2017-09-13T18:52:20.247Z,9.13
2017-09-13T18:54:48.435Z,8.47
2017-09-13T18:57:15.993Z,8.63
2017-09-13T18:59:43.564Z,7.73
2017-09-13T19:02:11.216Z,7.90
2017-09-13T19:04:38.798Z,9.17
2017-09-13T19:07:09.786Z,8.70
2017-09-13T19:09:37.464Z,9.63
2017-09-13T19:12:05.943Z,8.80
2017-09-13T19:14:33.750Z,9.87
2017-09-13T19:17:02.630Z,10.63
2017-09-13T19:19:30.210Z,9.10
2017-09-13T19:21:59.678Z,9.10
2017-09-13T19:24:31.201Z,9.50
2017-09-13T19:26:58.824Z,9.53
2017-09-13T19:29:27.828Z,10.30
2017-09-13T19:31:56.663Z,9.53
2017-09-13T19:34:24.760Z,9.30
2017-09-13T19:36:52.519Z,7.80
2017-09-13T19:39:20.120Z,8.73
2017-09-13T19:41:47.717Z,9.70
2017-09-13T19:44:15.606Z,8.82
2017-09-13T19:46:46.230Z,8.33
2017-09-13T19:49:17.125Z,8.73
2017-09-13T19:51:47.607Z,9.60
2017-09-13T19:54:20.136Z,12.67
2017-09-13T19:56:47.718Z,10.60
2017-09-13T19:59:18.236Z,12.53
2017-09-13T20:01:48.484Z,11.20
2017-09-13T20:04:19.091Z,8.10
2017-09-13T20:06:46.626Z,8.90
2017-09-13T20:09:14.250Z,8.70
2017-09-13T20:11:42.137Z,8.47
2017-09-13T20:14:10.600Z,7.27
2017-09-13T20:16:41.448Z,8.40
2017-09-13T20:19:09.204Z,9.90
2017-09-13T20:21:38.735Z,8.30
2017-09-13T20:24:06.360Z,8.73
2017-09-13T20:26:37.017Z,8.93
2017-09-13T20:29:07.659Z,8.77
2017-09-13T20:31:35.949Z,8.20
2017-09-13T20:34:04.538Z,6.73
2017-09-13T20:36:32.251Z,6.80
2017-09-13T20:38:59.902Z,7.37
2017-09-13T20:41:27.683Z,7.13
2017-09-13T20:43:55.269Z,7.17
2017-09-13T20:46:22.929Z,7.70
2017-09-13T20:48:50.556Z,6.70
2017-09-13T20:51:18.779Z,6.20
2017-09-13T20:53:46.379Z,7.00
2017-09-13T20:56:13.968Z,5.80
2017-09-13T20:58:41.499Z,6.83
2017-09-13T21:01:10.023Z,7.43
2017-09-13T21:03:37.579Z,6.47
2017-09-13T21:06:05.203Z,7.13
2017-09-13T21:08:32.789Z,6.20
2017-09-13T21:11:00.733Z,6.30
2017-09-13T21:13:28.262Z,7.80
2017-09-13T21:15:55.821Z,6.60
2017-09-13T21:18:23.369Z,6.50
2017-09-13T21:20:50.908Z,6.17
2017-09-13T21:23:18.538Z,7.47
2017-09-13T21:25:46.095Z,6.47
2017-09-13T21:28:13.636Z,7.30
2017-09-13T21:30:41.212Z,5.77
2017-09-13T21:33:09.102Z,5.57
2017-09-13T21:35:36.643Z,6.37
2017-09-13T21:38:04.457Z,6.27
2017-09-13T21:40:32.006Z,6.60
2017-09-13T21:42:59.579Z,7.00
2017-09-13T21:45:27.202Z,6.27
2017-09-13T21:47:54.754Z,6.30
2017-09-13T21:50:22.590Z,6.90
2017-09-13T21:52:50.182Z,6.13
2017-09-13T21:55:17.752Z,6.20
2017-09-13T21:57:45.357Z,6.67
2017-09-13T22:00:12.930Z,6.63
2017-09-13T22:02:40.644Z,7.27
2017-09-13T22:05:08.173Z,6.57
2017-09-13T22:07:35.760Z,6.50
2017-09-13T22:10:03.615Z,6.90
2017-09-13T22:12:31.558Z,7.13
2017-09-13T22:14:59.209Z,7.57
2017-09-13T22:17:26.754Z,7.00
2017-09-13T22:19:54.356Z,7.17
2017-09-13T22:22:21.934Z,6.50
2017-09-13T22:24:49.736Z,5.73
2017-09-13T22:27:17.281Z,6.63
2017-09-13T22:29:44.870Z,6.63
2017-09-13T22:32:12.506Z,6.70
2017-09-13T22:34:40.096Z,6.23
2017-09-13T22:37:07.650Z,6.33
2017-09-13T22:39:35.295Z,6.30
2017-09-13T22:42:02.818Z,7.07
2017-09-13T22:44:30.346Z,6.60
2017-09-13T22:46:57.954Z,6.37
2017-09-13T22:49:25.821Z,6.80
2017-09-13T22:51:53.381Z,6.80
2017-09-13T22:54:20.973Z,6.10
2017-09-13T22:56:48.549Z,6.30
2017-09-13T22:59:16.159Z,6.20
2017-09-13T23:01:43.805Z,6.33
2017-09-13T23:04:11.394Z,5.57
2017-09-13T23:06:38.982Z,5.90
2017-09-13T23:09:06.578Z,6.63
2017-09-13T23:11:34.187Z,6.63
2017-09-13T23:14:01.795Z,6.23
2017-09-13T23:16:29.403Z,5.50
2017-09-13T23:18:56.995Z,6.67
2017-09-13T23:21:24.939Z,5.60
2017-09-13T23:23:52.523Z,5.80
2017-09-13T23:26:20.269Z,6.33
2017-09-13T23:28:47.835Z,7.00
2017-09-13T23:31:15.441Z,5.73
2017-09-13T23:33:43.081Z,6.40
2017-09-13T23:36:10.614Z,6.00
2017-09-13T23:38:38.231Z,5.83
2017-09-13T23:41:05.801Z,6.60
2017-09-13T23:43:33.406Z,7.00
2017-09-13T23:46:01.029Z,6.77
2017-09-13T23:48:28.597Z,7.83
2017-09-13T23:50:56.161Z,12.80
2017-09-13T23:53:23.735Z,8.17
2017-09-13T23:55:51.277Z,7.50
2017-09-13T23:58:19.052Z,6.97
